createdAt,value
2018-09-09T00:00:09.616Z,14.50
2018-09-09T00:02:39.011Z,14.60
2018-09-09T00:05:08.625Z,14.60
2018-09-09T00:07:38.107Z,14.50
2018-09-09T00:10:07.847Z,14.50
2018-09-09T00:12:37.219Z,14.50
2018-09-09T00:15:07.011Z,14.50
2018-09-09T00:17:36.395Z,14.60
2018-09-09T00:20:05.956Z,14.60
2018-09-09T00:22:35.299Z,14.50
2018-09-09T00:25:05.529Z,14.60
2018-09-09T00:27:34.906Z,14.60
2018-09-09T00:30:04.461Z,14.70
2018-09-09T00:32:34.498Z,14.80
2018-09-09T00:35:05.211Z,14.80
2018-09-09T00:37:35.316Z,14.70
2018-09-09T00:40:04.732Z,14.80
2018-09-09T00:42:34.154Z,14.70
2018-09-09T00:45:03.539Z,14.60
2018-09-09T00:47:32.888Z,14.60
2018-09-09T00:50:07.309Z,14.50
2018-09-09T00:52:41.800Z,14.50
2018-09-09T00:55:11.290Z,14.50
2018-09-09T00:57:40.690Z,14.50
2018-09-09T01:00:10.109Z,14.50
2018-09-09T01:02:39.407Z,14.50
2018-09-09T01:05:09.476Z,14.50
2018-09-09T01:07:38.816Z,14.60
2018-09-09T01:10:08.068Z,14.70
2018-09-09T01:12:37.283Z,14.60
2018-09-09T01:15:06.944Z,14.60
2018-09-09T01:17:36.231Z,14.60
2018-09-09T01:20:06.044Z,14.60
2018-09-09T01:22:35.465Z,14.50
2018-09-09T01:25:05.074Z,14.50
2018-09-09T01:27:34.417Z,14.50
2018-09-09T01:30:04.080Z,14.50
2018-09-09T01:32:33.579Z,14.50
2018-09-09T01:35:02.837Z,14.40
2018-09-09T01:37:32.663Z,14.30
2018-09-09T01:40:02.123Z,14.30
2018-09-09T01:42:31.507Z,14.40
2018-09-09T01:45:00.899Z,14.30
2018-09-09T01:47:30.994Z,14.30
2018-09-09T01:50:00.324Z,14.30
2018-09-09T01:52:29.708Z,14.30
2018-09-09T01:54:59.124Z,14.30
2018-09-09T01:57:29.054Z,14.30
2018-09-09T01:59:58.675Z,14.30
2018-09-09T02:02:28.297Z,14.30
2018-09-09T02:04:57.632Z,14.30
2018-09-09T02:07:27.330Z,14.30
2018-09-09T02:09:56.747Z,14.30
2018-09-09T02:12:26.406Z,14.40
2018-09-09T02:14:55.974Z,14.50
2018-09-09T02:17:25.482Z,14.40
2018-09-09T02:19:54.804Z,14.30
2018-09-09T02:22:24.086Z,14.20
2018-09-09T02:24:53.362Z,14.10
2018-09-09T02:27:22.950Z,14.10
2018-09-09T02:29:52.185Z,14.10
2018-09-09T02:32:21.817Z,14.20
2018-09-09T02:34:51.907Z,14.30
2018-09-09T02:37:21.255Z,14.20
2018-09-09T02:39:50.905Z,14.10
2018-09-09T02:42:20.505Z,14.10
2018-09-09T02:44:49.788Z,14.00
2018-09-09T02:47:19.231Z,14.00
2018-09-09T02:49:48.591Z,13.90
2018-09-09T02:52:18.138Z,13.90
2018-09-09T02:54:47.447Z,13.90
2018-09-09T02:57:16.674Z,13.80
2018-09-09T02:59:46.032Z,13.80
2018-09-09T03:02:15.375Z,13.70
2018-09-09T03:04:45.487Z,13.70
2018-09-09T03:07:14.815Z,13.60
2018-09-09T03:09:44.072Z,13.50
2018-09-09T03:12:14.021Z,13.50
2018-09-09T03:14:43.573Z,13.40
2018-09-09T03:17:13.100Z,13.40
2018-09-09T03:19:43.091Z,13.30
2018-09-09T03:22:12.687Z,13.30
2018-09-09T03:24:41.905Z,13.30
2018-09-09T03:27:11.239Z,13.30
2018-09-09T03:29:40.679Z,13.20
2018-09-09T03:32:10.614Z,13.20
2018-09-09T03:34:39.887Z,13.30
2018-09-09T03:37:09.163Z,13.40
2018-09-09T03:39:38.558Z,13.40
2018-09-09T03:42:08.647Z,13.40
2018-09-09T03:44:37.916Z,13.40
2018-09-09T03:47:07.157Z,13.50
2018-09-09T03:49:36.385Z,13.40
2018-09-09T03:52:06.410Z,13.40
2018-09-09T03:54:35.971Z,13.30
2018-09-09T03:57:05.729Z,13.20
2018-09-09T03:59:36.302Z,13.20
2018-09-09T04:02:06.930Z,13.20
2018-09-09T04:04:36.361Z,13.20
2018-09-09T04:07:06.213Z,13.10
2018-09-09T04:09:35.927Z,13.10
2018-09-09T04:12:05.539Z,13.10
2018-09-09T04:14:34.804Z,13.10
2018-09-09T04:17:04.235Z,13.10
2018-09-09T04:19:33.642Z,13.10
2018-09-09T04:22:02.849Z,13.10
2018-09-09T04:24:32.315Z,13.10
2018-09-09T04:27:01.729Z,13.10
2018-09-09T04:29:31.175Z,13.10
2018-09-09T04:32:00.571Z,13.10
2018-09-09T04:34:30.509Z,13.10
2018-09-09T04:37:00.485Z,13.10
2018-09-09T04:39:29.883Z,13.20
2018-09-09T04:41:59.485Z,13.20
2018-09-09T04:44:29.903Z,13.20
2018-09-09T04:46:59.654Z,13.30
2018-09-09T04:49:28.987Z,13.30
2018-09-09T04:51:58.237Z,13.20
2018-09-09T04:54:27.486Z,13.20
2018-09-09T04:56:56.799Z,13.20
2018-09-09T04:59:26.236Z,13.20
2018-09-09T05:01:56.890Z,13.20
2018-09-09T05:04:26.466Z,13.20
2018-09-09T05:06:55.917Z,13.20
2018-09-09T05:09:25.290Z,13.20
2018-09-09T05:11:55.878Z,13.20
2018-09-09T05:14:26.102Z,13.20
2018-09-09T05:16:55.588Z,13.20
2018-09-09T05:19:25.206Z,13.20
2018-09-09T05:21:55.042Z,13.20
2018-09-09T05:24:24.623Z,13.20
2018-09-09T05:26:54.880Z,13.20
2018-09-09T05:29:24.232Z,13.20
2018-09-09T05:31:53.744Z,13.20
2018-09-09T05:34:23.365Z,13.20
2018-09-09T05:36:52.625Z,13.20
2018-09-09T05:39:22.020Z,13.20
2018-09-09T05:41:51.536Z,13.30
2018-09-09T05:44:20.870Z,13.30
2018-09-09T05:46:50.529Z,13.30
2018-09-09T05:49:19.844Z,13.30
2018-09-09T05:51:49.824Z,13.40
2018-09-09T05:54:19.107Z,13.50
2018-09-09T05:56:48.542Z,13.50
2018-09-09T05:59:18.083Z,13.50
2018-09-09T06:01:47.535Z,13.60
2018-09-09T06:04:17.183Z,13.60
2018-09-09T06:06:46.748Z,13.70
2018-09-09T06:09:16.209Z,13.90
2018-09-09T06:11:45.686Z,14.00
2018-09-09T06:14:15.856Z,14.10
2018-09-09T06:16:46.075Z,14.10
2018-09-09T06:19:15.465Z,14.20
2018-09-09T06:21:45.587Z,14.20
2018-09-09T06:24:15.389Z,14.20
2018-09-09T06:26:44.826Z,14.20
2018-09-09T06:29:14.233Z,14.20
2018-09-09T06:31:43.811Z,14.30
2018-09-09T06:34:13.384Z,14.30
2018-09-09T06:36:43.407Z,14.30
2018-09-09T06:39:13.150Z,14.50
2018-09-09T06:41:42.794Z,14.50
2018-09-09T06:44:13.021Z,14.60
2018-09-09T06:46:43.265Z,14.60
2018-09-09T06:49:12.902Z,14.70
2018-09-09T06:51:42.358Z,14.80
2018-09-09T06:54:11.734Z,14.90
2018-09-09T06:56:42.114Z,14.90
2018-09-09T06:59:12.846Z,14.90
2018-09-09T07:01:42.959Z,15.00
2018-09-09T07:04:12.621Z,14.90
2018-09-09T07:06:42.173Z,15.00
2018-09-09T07:09:11.646Z,15.10
2018-09-09T07:11:41.945Z,15.40
2018-09-09T07:14:11.264Z,15.60
2018-09-09T07:16:41.530Z,15.80
2018-09-09T07:19:11.130Z,16.10
2018-09-09T07:21:41.658Z,16.10
2018-09-09T07:24:11.135Z,16.10
2018-09-09T07:26:40.905Z,16.10
2018-09-09T07:29:10.173Z,16.00
2018-09-09T07:31:40.892Z,16.10
2018-09-09T07:34:10.407Z,16.20
2018-09-09T07:36:40.458Z,16.40
2018-09-09T07:39:10.127Z,16.60
2018-09-09T07:41:39.728Z,16.70
2018-09-09T07:44:09.816Z,16.80
2018-09-09T07:46:39.187Z,17.00
2018-09-09T07:49:09.252Z,17.10
2018-09-09T07:51:38.882Z,17.20
2018-09-09T07:54:09.290Z,17.30
2018-09-09T07:56:39.296Z,17.70
2018-09-09T07:59:08.738Z,18.00
2018-09-09T08:01:38.363Z,18.10
2018-09-09T08:04:07.855Z,18.00
2018-09-09T08:06:38.488Z,18.00
2018-09-09T08:09:09.462Z,17.90
2018-09-09T08:11:40.316Z,17.90
2018-09-09T08:14:10.799Z,17.90
2018-09-09T08:16:40.622Z,17.90
2018-09-09T08:19:10.342Z,17.90
2018-09-09T08:21:39.865Z,17.90
2018-09-09T08:24:09.456Z,17.90
2018-09-09T08:26:38.850Z,18.00
2018-09-09T08:29:08.330Z,18.00
2018-09-09T08:31:37.925Z,18.20
2018-09-09T08:36:37.448Z,18.10
2018-09-09T08:39:09.445Z,18.40
2018-09-09T08:41:39.198Z,18.70
2018-09-09T08:44:09.456Z,18.90
2018-09-09T08:46:39.221Z,19.30
2018-09-09T08:49:08.665Z,19.30
2018-09-09T08:51:38.472Z,19.30
2018-09-09T08:54:07.852Z,19.10
2018-09-09T08:56:38.283Z,19.00
2018-09-09T08:59:07.723Z,19.10
2018-09-09T09:01:37.372Z,19.00
2018-09-09T09:04:07.085Z,19.00
2018-09-09T09:06:36.526Z,19.10
2018-09-09T09:09:08.615Z,19.10
2018-09-09T09:11:38.217Z,19.20
2018-09-09T09:14:09.246Z,19.30
2018-09-09T09:16:39.373Z,19.40
2018-09-09T09:19:09.443Z,19.60
2018-09-09T09:21:39.070Z,19.80
2018-09-09T09:24:08.512Z,20.00
2018-09-09T09:26:38.637Z,20.30
2018-09-09T09:29:08.320Z,20.40
2018-09-09T09:31:38.208Z,20.50
2018-09-09T09:34:07.824Z,20.60
2018-09-09T09:36:37.106Z,20.80
2018-09-09T09:39:07.814Z,20.90
2018-09-09T09:41:37.359Z,21.00
2018-09-09T09:44:07.572Z,21.00
2018-09-09T09:49:15.718Z,21.10
2018-09-09T09:51:45.781Z,21.00
2018-09-09T09:54:15.410Z,20.90
2018-09-09T09:56:45.853Z,20.80
2018-09-09T09:59:15.422Z,20.80
2018-09-09T10:01:44.864Z,20.90
2018-09-09T10:04:14.436Z,21.10
2018-09-09T10:06:44.063Z,21.20
2018-09-09T10:09:13.649Z,21.30
2018-09-09T10:11:43.675Z,21.40
2018-09-09T10:14:14.265Z,21.30
2018-09-09T10:16:43.742Z,21.40
2018-09-09T10:19:13.199Z,21.40
2018-09-09T10:21:42.702Z,21.40
2018-09-09T10:24:12.446Z,21.40
2018-09-09T10:26:41.928Z,21.30
2018-09-09T10:29:11.431Z,21.30
2018-09-09T10:31:40.826Z,21.40
2018-09-09T10:34:10.140Z,21.50
2018-09-09T10:36:39.816Z,21.50
2018-09-09T10:39:11.972Z,21.40
2018-09-09T10:41:42.134Z,21.30
2018-09-09T10:44:11.433Z,21.30
2018-09-09T10:46:40.762Z,21.30
2018-09-09T10:49:10.673Z,21.20
2018-09-09T10:51:40.201Z,21.10
2018-09-09T10:54:09.890Z,21.20
2018-09-09T10:56:39.529Z,21.10
2018-09-09T10:59:09.024Z,21.20
2018-09-09T11:01:38.566Z,21.10
2018-09-09T11:04:08.318Z,21.10
2018-09-09T11:06:38.118Z,21.10
2018-09-09T11:09:08.793Z,21.20
2018-09-09T11:11:38.172Z,21.20
2018-09-09T11:14:07.599Z,21.30
2018-09-09T11:16:37.115Z,21.40
2018-09-09T11:19:06.638Z,21.50
2018-09-09T11:21:36.041Z,21.50
2018-09-09T11:24:05.726Z,21.50
2018-09-09T11:26:35.279Z,21.70
2018-09-09T11:29:04.798Z,21.80
2018-09-09T11:31:34.183Z,21.90
2018-09-09T11:34:03.642Z,21.90
2018-09-09T11:36:33.103Z,21.90
2018-09-09T11:39:02.836Z,22.00
2018-09-09T11:41:32.880Z,22.20
2018-09-09T11:44:02.851Z,22.50
2018-09-09T11:46:33.398Z,22.80
2018-09-09T11:49:03.865Z,23.00
2018-09-09T11:51:33.371Z,23.40
2018-09-09T11:54:03.127Z,23.60
2018-09-09T11:56:33.947Z,23.80
2018-09-09T11:59:03.545Z,24.00
2018-09-09T12:01:33.914Z,23.90
2018-09-09T12:04:03.349Z,24.10
2018-09-09T12:06:33.000Z,24.20
2018-09-09T12:09:02.722Z,24.20
2018-09-09T12:11:32.057Z,24.20
2018-09-09T12:14:01.562Z,24.30
2018-09-09T12:16:30.960Z,24.30
2018-09-09T12:19:00.692Z,24.40
2018-09-09T12:21:30.694Z,24.50
2018-09-09T12:24:00.212Z,24.40
2018-09-09T12:26:29.651Z,24.50
2018-09-09T12:28:59.257Z,24.70
2018-09-09T12:33:57.937Z,24.80
2018-09-09T12:36:28.554Z,25.20
2018-09-09T12:38:58.761Z,25.40
2018-09-09T12:41:28.138Z,25.40
2018-09-09T12:44:03.197Z,26.00
2018-09-09T12:46:38.795Z,25.70
2018-09-09T12:49:08.868Z,25.60
2018-09-09T12:51:38.382Z,25.60
2018-09-09T12:54:08.010Z,25.70
2018-09-09T12:56:37.990Z,25.80
2018-09-09T12:59:07.772Z,25.90
2018-09-09T13:01:38.430Z,25.90
2018-09-09T13:04:08.532Z,26.00
2018-09-09T13:06:37.899Z,26.00
2018-09-09T13:09:08.998Z,26.10
2018-09-09T13:11:38.693Z,26.20
2018-09-09T13:14:08.271Z,26.20
2018-09-09T13:16:38.485Z,26.30
2018-09-09T13:19:08.117Z,26.30
2018-09-09T13:21:37.833Z,26.50
2018-09-09T13:26:36.840Z,26.50
2018-09-09T13:29:06.417Z,26.50
2018-09-09T13:31:35.858Z,26.70
2018-09-09T13:34:05.303Z,26.80
2018-09-09T13:36:34.865Z,26.90
2018-09-09T13:39:05.678Z,27.10
2018-09-09T13:41:35.707Z,27.20
2018-09-09T13:44:05.234Z,27.40
2018-09-09T13:46:34.637Z,27.30
2018-09-09T13:49:04.293Z,27.30
2018-09-09T13:51:33.926Z,27.30
2018-09-09T13:54:04.034Z,27.30
2018-09-09T13:56:33.609Z,27.30
2018-09-09T13:59:03.335Z,27.10
2018-09-09T14:01:33.270Z,26.70
2018-09-09T14:04:02.894Z,26.70
2018-09-09T14:06:33.217Z,26.70
2018-09-09T14:09:02.810Z,26.90
2018-09-09T14:11:32.447Z,27.10
2018-09-09T14:14:02.058Z,27.10
2018-09-09T14:16:32.089Z,27.20
2018-09-09T14:19:01.355Z,27.30
2018-09-09T14:21:30.862Z,27.50
2018-09-09T14:24:00.449Z,27.70
2018-09-09T14:26:30.583Z,27.80
2018-09-09T14:29:00.638Z,27.70
2018-09-09T14:31:30.068Z,27.90
2018-09-09T14:33:59.599Z,27.90
2018-09-09T14:36:28.928Z,28.10
2018-09-09T14:38:58.500Z,28.10
2018-09-09T14:41:28.053Z,28.10
2018-09-09T14:43:57.756Z,28.30
2018-09-09T14:48:56.524Z,28.80
2018-09-09T14:51:26.125Z,28.30
2018-09-09T14:53:55.693Z,28.40
2018-09-09T14:56:25.151Z,28.10
2018-09-09T14:58:54.602Z,28.00
2018-09-09T15:01:24.304Z,27.90
2018-09-09T15:03:53.736Z,27.90
2018-09-09T15:06:23.492Z,28.00
2018-09-09T15:08:52.859Z,27.90
2018-09-09T15:11:22.931Z,27.90
2018-09-09T15:13:53.224Z,28.00
2018-09-09T15:16:23.517Z,28.10
2018-09-09T15:18:53.155Z,28.10
2018-09-09T15:21:23.062Z,28.00
2018-09-09T15:23:53.945Z,27.90
2018-09-09T15:26:23.447Z,27.90
2018-09-09T15:28:52.817Z,28.10
2018-09-09T15:31:22.237Z,27.90
2018-09-09T15:33:52.727Z,27.80
2018-09-09T15:36:22.418Z,27.80
2018-09-09T15:38:51.897Z,27.90
2018-09-09T15:41:21.407Z,27.90
2018-09-09T15:43:50.999Z,28.20
2018-09-09T15:46:20.569Z,28.30
2018-09-09T15:48:50.178Z,28.30
2018-09-09T15:51:19.638Z,28.30
2018-09-09T15:53:49.372Z,28.20
2018-09-09T15:56:19.155Z,28.00
2018-09-09T15:58:48.619Z,28.10
2018-09-09T16:01:18.903Z,28.20
2018-09-09T16:03:48.452Z,28.20
2018-09-09T16:06:18.163Z,28.20
2018-09-09T16:08:48.768Z,28.00
2018-09-09T16:11:18.377Z,27.80
2018-09-09T16:13:47.940Z,27.70
2018-09-09T16:16:17.284Z,27.50
2018-09-09T16:18:46.756Z,27.50
2018-09-09T16:21:16.269Z,27.40
2018-09-09T16:23:46.829Z,27.10
2018-09-09T16:26:17.260Z,27.00
2018-09-09T16:28:46.704Z,26.80
2018-09-09T16:31:16.062Z,26.90
2018-09-09T16:33:45.648Z,26.90
2018-09-09T16:36:15.126Z,26.60
2018-09-09T16:38:44.544Z,26.40
2018-09-09T16:41:14.703Z,26.10
2018-09-09T16:43:44.059Z,25.80
2018-09-09T16:46:13.861Z,25.70
2018-09-09T16:48:44.100Z,25.50
2018-09-09T16:51:14.346Z,25.40
2018-09-09T16:53:44.482Z,25.20
2018-09-09T16:56:13.904Z,25.20
2018-09-09T16:58:43.264Z,25.10
2018-09-09T17:01:12.844Z,25.00
2018-09-09T17:03:43.395Z,25.00
2018-09-09T17:06:12.914Z,25.00
2018-09-09T17:08:43.556Z,25.00
2018-09-09T17:11:12.890Z,25.00
2018-09-09T17:13:42.566Z,25.00
2018-09-09T17:16:12.828Z,24.90
2018-09-09T17:18:42.234Z,24.80
2018-09-09T17:21:11.568Z,24.70
2018-09-09T17:23:41.111Z,24.60
2018-09-09T17:26:10.590Z,24.60
2018-09-09T17:28:40.371Z,24.20
2018-09-09T17:31:09.702Z,24.00
2018-09-09T17:33:39.202Z,23.70
2018-09-09T17:36:08.991Z,23.40
2018-09-09T17:38:38.744Z,23.30
2018-09-09T17:41:08.405Z,23.10
2018-09-09T17:43:38.175Z,22.90
2018-09-09T17:46:07.768Z,22.60
2018-09-09T17:48:37.935Z,22.50
2018-09-09T17:51:07.505Z,22.40
2018-09-09T17:53:38.077Z,22.20
2018-09-09T17:56:07.551Z,22.10
2018-09-09T17:58:37.204Z,22.00
2018-09-09T18:01:06.631Z,21.80
2018-09-09T18:03:36.180Z,21.60
2018-09-09T18:06:05.723Z,21.40
2018-09-09T18:08:35.064Z,21.20
2018-09-09T18:11:04.653Z,21.00
2018-09-09T18:13:34.202Z,20.80
2018-09-09T18:16:03.676Z,20.60
2018-09-09T18:18:33.158Z,20.40
2018-09-09T18:21:02.537Z,20.30
2018-09-09T18:23:31.930Z,20.10
2018-09-09T18:26:01.605Z,20.10
2018-09-09T18:28:32.160Z,19.90
2018-09-09T18:31:02.222Z,19.80
2018-09-09T18:33:32.058Z,19.70
2018-09-09T18:36:02.412Z,19.60
2018-09-09T18:38:32.015Z,19.60
2018-09-09T18:41:01.630Z,19.50
2018-09-09T18:43:31.753Z,19.50
2018-09-09T18:46:01.494Z,19.60
2018-09-09T18:48:31.176Z,19.50
2018-09-09T18:51:01.412Z,19.50
2018-09-09T18:53:30.815Z,19.50
2018-09-09T18:56:00.227Z,19.60
2018-09-09T18:58:30.400Z,19.60
2018-09-09T19:01:00.577Z,19.70
2018-09-09T19:03:29.880Z,19.70
2018-09-09T19:05:59.576Z,19.70
2018-09-09T19:08:29.017Z,19.70
2018-09-09T19:10:59.211Z,19.70
2018-09-09T19:13:28.736Z,19.60
2018-09-09T19:15:58.130Z,19.60
2018-09-09T19:18:27.979Z,19.60
2018-09-09T19:20:57.209Z,19.50
2018-09-09T19:23:26.829Z,19.50
2018-09-09T19:25:56.447Z,19.40
2018-09-09T19:28:26.018Z,19.40
2018-09-09T19:30:55.366Z,19.30
2018-09-09T19:33:24.762Z,19.30
2018-09-09T19:35:54.241Z,19.20
2018-09-09T19:38:23.972Z,19.20
2018-09-09T19:40:53.520Z,19.10
2018-09-09T19:43:23.643Z,19.20
2018-09-09T19:45:53.232Z,19.10
2018-09-09T19:48:22.950Z,19.10
2018-09-09T19:50:53.357Z,19.00
2018-09-09T19:53:24.215Z,19.00
2018-09-09T19:55:54.807Z,19.00
2018-09-09T19:58:24.200Z,18.90
2018-09-09T20:00:54.473Z,18.80
2018-09-09T20:03:24.027Z,18.70
2018-09-09T20:05:53.489Z,18.70
2018-09-09T20:08:22.883Z,18.50
2018-09-09T20:10:52.551Z,18.40
2018-09-09T20:13:22.685Z,18.30
2018-09-09T20:15:53.824Z,18.20
2018-09-09T20:18:23.292Z,18.00
2018-09-09T20:20:52.812Z,18.00
2018-09-09T20:23:23.029Z,17.90
2018-09-09T20:25:52.632Z,17.80
2018-09-09T20:28:22.262Z,17.80
2018-09-09T20:30:52.329Z,17.80
2018-09-09T20:33:22.033Z,17.70
2018-09-09T20:35:51.793Z,17.60
2018-09-09T20:38:21.458Z,17.70
2018-09-09T20:40:51.341Z,17.70
2018-09-09T20:43:20.990Z,17.70
2018-09-09T20:45:50.499Z,17.70
2018-09-09T20:48:20.072Z,17.60
2018-09-09T20:50:49.344Z,17.60
2018-09-09T20:53:18.754Z,17.60
2018-09-09T20:55:48.212Z,17.60
2018-09-09T20:58:17.530Z,17.60
2018-09-09T21:00:47.024Z,17.60
2018-09-09T21:03:16.646Z,17.60
2018-09-09T21:05:46.396Z,17.60
2018-09-09T21:08:27.779Z,17.70
2018-09-09T21:10:57.285Z,17.60
2018-09-09T21:13:26.518Z,17.60
2018-09-09T21:15:55.717Z,17.60
2018-09-09T21:18:25.175Z,17.60
2018-09-09T21:20:54.741Z,17.60
2018-09-09T21:23:24.244Z,17.60
2018-09-09T21:25:53.875Z,17.60
2018-09-09T21:28:23.286Z,17.60
2018-09-09T21:30:52.998Z,17.60
2018-09-09T21:33:22.375Z,17.60
2018-09-09T21:35:52.553Z,17.60
2018-09-09T21:38:22.537Z,17.60
2018-09-09T21:40:52.209Z,17.60
2018-09-09T21:43:22.335Z,17.60
2018-09-09T21:45:53.311Z,17.60
2018-09-09T21:48:22.606Z,17.60
2018-09-09T21:50:52.159Z,17.60
2018-09-09T21:53:21.469Z,17.60
2018-09-09T21:55:52.047Z,17.70
2018-09-09T21:58:21.677Z,17.70
2018-09-09T22:00:56.597Z,17.70
2018-09-09T22:03:26.869Z,17.70
2018-09-09T22:05:57.863Z,17.70
2018-09-09T22:08:27.329Z,17.70
2018-09-09T22:10:56.784Z,17.70
2018-09-09T22:13:26.986Z,17.70
2018-09-09T22:15:56.819Z,17.70
2018-09-09T22:18:26.145Z,17.60
2018-09-09T22:20:55.761Z,17.60
2018-09-09T22:23:25.108Z,17.60
2018-09-09T22:25:54.386Z,17.50
2018-09-09T22:28:23.947Z,17.50
2018-09-09T22:30:53.821Z,17.40
2018-09-09T22:33:23.322Z,17.40
2018-09-09T22:35:53.241Z,17.40
2018-09-09T22:38:23.353Z,17.40
2018-09-09T22:40:53.016Z,17.30
2018-09-09T22:43:22.587Z,17.30
2018-09-09T22:45:56.076Z,17.20
2018-09-09T22:48:25.707Z,17.20
2018-09-09T22:50:55.509Z,17.20
2018-09-09T22:53:24.870Z,17.10
2018-09-09T22:55:54.082Z,17.00
2018-09-09T22:58:23.487Z,17.00
2018-09-09T23:00:53.295Z,17.10
2018-09-09T23:03:22.780Z,17.10
2018-09-09T23:05:52.278Z,17.10
2018-09-09T23:08:21.996Z,17.10
2018-09-09T23:10:51.335Z,17.00
2018-09-09T23:13:20.646Z,17.10
2018-09-09T23:15:50.758Z,17.00
2018-09-09T23:18:20.849Z,16.90
2018-09-09T23:20:50.256Z,16.90
2018-09-09T23:23:19.647Z,16.80
2018-09-09T23:25:49.057Z,16.70
2018-09-09T23:28:18.461Z,16.70
2018-09-09T23:30:48.048Z,16.60
2018-09-09T23:33:18.275Z,16.50
2018-09-09T23:35:47.603Z,16.50
2018-09-09T23:38:17.583Z,16.50
2018-09-09T23:40:47.075Z,16.50
2018-09-09T23:43:16.525Z,16.40
2018-09-09T23:45:45.955Z,16.40
2018-09-09T23:48:15.739Z,16.40
2018-09-09T23:50:45.227Z,16.40
2018-09-09T23:53:15.251Z,16.30
2018-09-09T23:55:44.783Z,16.30
2018-09-09T23:58:14.260Z,16.30
